sensor_id;sensor_type;location;lat;lon;timestamp;P1;durP1;ratioP1;P2;durP2;ratioP2
18411;SDS011;27097;51.738;19.472;2022-10-16T00:00:37;9.77;;;6.72;;
18411;SDS011;27097;51.738;19.472;2022-10-16T00:03:06;12.38;;;7.70;;
18411;SDS011;27097;51.738;19.472;2022-10-16T00:05:33;11.60;;;7.40;;
18411;SDS011;27097;51.738;19.472;2022-10-16T00:08:05;11.23;;;6.72;;
18411;SDS011;27097;51.738;19.472;2022-10-16T00:10:32;12.65;;;6.85;;
18411;SDS011;27097;51.738;19.472;2022-10-16T00:13:00;11.65;;;7.00;;
18411;SDS011;27097;51.738;19.472;2022-10-16T00:15:27;11.77;;;6.78;;
18411;SDS011;27097;51.738;19.472;2022-10-16T00:17:54;12.82;;;7.10;;
18411;SDS011;27097;51.738;19.472;2022-10-16T00:20:21;10.35;;;6.60;;
18411;SDS011;27097;51.738;19.472;2022-10-16T00:22:48;12.88;;;7.53;;
18411;SDS011;27097;51.738;19.472;2022-10-16T00:25:15;16.00;;;6.95;;
18411;SDS011;27097;51.738;19.472;2022-10-16T00:27:42;9.30;;;6.93;;
18411;SDS011;27097;51.738;19.472;2022-10-16T00:30:10;11.30;;;7.28;;
18411;SDS011;27097;51.738;19.472;2022-10-16T00:32:37;9.07;;;6.72;;
18411;SDS011;27097;51.738;19.472;2022-10-16T00:35:04;12.10;;;6.95;;
18411;SDS011;27097;51.738;19.472;2022-10-16T00:37:31;10.95;;;6.78;;
18411;SDS011;27097;51.738;19.472;2022-10-16T00:39:58;8.98;;;6.35;;
18411;SDS011;27097;51.738;19.472;2022-10-16T00:42:25;11.82;;;7.32;;
18411;SDS011;27097;51.738;19.472;2022-10-16T00:44:53;11.35;;;6.90;;
18411;SDS011;27097;51.738;19.472;2022-10-16T00:47:24;9.98;;;7.00;;
18411;SDS011;27097;51.738;19.472;2022-10-16T00:49:56;10.75;;;7.00;;
18411;SDS011;27097;51.738;19.472;2022-10-16T00:52:26;13.07;;;7.07;;
18411;SDS011;27097;51.738;19.472;2022-10-16T00:54:53;13.30;;;7.25;;
18411;SDS011;27097;51.738;19.472;2022-10-16T00:57:21;11.02;;;6.88;;
18411;SDS011;27097;51.738;19.472;2022-10-16T00:59:49;8.65;;;6.65;;
18411;SDS011;27097;51.738;19.472;2022-10-16T01:02:16;11.55;;;6.65;;
18411;SDS011;27097;51.738;19.472;2022-10-16T01:04:46;10.30;;;6.95;;
18411;SDS011;27097;51.738;19.472;2022-10-16T01:07:18;9.45;;;6.63;;
18411;SDS011;27097;51.738;19.472;2022-10-16T01:09:55;10.30;;;7.40;;
18411;SDS011;27097;51.738;19.472;2022-10-16T01:12:31;10.63;;;6.97;;
18411;SDS011;27097;51.738;19.472;2022-10-16T01:15:04;9.57;;;6.95;;
18411;SDS011;27097;51.738;19.472;2022-10-16T01:17:37;10.52;;;7.03;;
18411;SDS011;27097;51.738;19.472;2022-10-16T01:20:11;10.90;;;6.60;;
18411;SDS011;27097;51.738;19.472;2022-10-16T01:22:48;9.55;;;6.70;;
18411;SDS011;27097;51.738;19.472;2022-10-16T01:25:29;9.85;;;6.68;;
18411;SDS011;27097;51.738;19.472;2022-10-16T01:28:07;18.00;;;8.82;;
18411;SDS011;27097;51.738;19.472;2022-10-16T01:30:37;21.48;;;8.05;;
18411;SDS011;27097;51.738;19.472;2022-10-16T01:33:08;13.65;;;7.35;;
18411;SDS011;27097;51.738;19.472;2022-10-16T01:35:41;15.10;;;7.75;;
18411;SDS011;27097;51.738;19.472;2022-10-16T01:38:12;14.50;;;7.50;;
18411;SDS011;27097;51.738;19.472;2022-10-16T01:40:45;11.77;;;7.18;;
18411;SDS011;27097;51.738;19.472;2022-10-16T01:43:17;14.32;;;7.15;;
18411;SDS011;27097;51.738;19.472;2022-10-16T01:45:47;12.88;;;7.60;;
18411;SDS011;27097;51.738;19.472;2022-10-16T01:48:16;14.38;;;8.13;;
18411;SDS011;27097;51.738;19.472;2022-10-16T01:50:48;13.15;;;7.15;;
18411;SDS011;27097;51.738;19.472;2022-10-16T01:53:19;11.48;;;7.40;;
18411;SDS011;27097;51.738;19.472;2022-10-16T01:55:48;10.63;;;6.70;;
18411;SDS011;27097;51.738;19.472;2022-10-16T01:58:20;10.68;;;7.20;;
18411;SDS011;27097;51.738;19.472;2022-10-16T02:00:49;9.95;;;6.22;;
18411;SDS011;27097;51.738;19.472;2022-10-16T02:03:18;10.82;;;6.47;;
18411;SDS011;27097;51.738;19.472;2022-10-16T02:05:47;12.43;;;6.55;;
18411;SDS011;27097;51.738;19.472;2022-10-16T02:08:16;11.43;;;6.43;;
18411;SDS011;27097;51.738;19.472;2022-10-16T02:10:44;10.50;;;6.63;;
18411;SDS011;27097;51.738;19.472;2022-10-16T02:13:12;10.45;;;6.63;;
18411;SDS011;27097;51.738;19.472;2022-10-16T02:15:44;12.85;;;6.93;;
18411;SDS011;27097;51.738;19.472;2022-10-16T02:18:11;10.13;;;6.65;;
18411;SDS011;27097;51.738;19.472;2022-10-16T02:20:40;9.98;;;6.32;;
18411;SDS011;27097;51.738;19.472;2022-10-16T02:23:12;13.70;;;6.57;;
18411;SDS011;27097;51.738;19.472;2022-10-16T02:25:45;10.35;;;6.65;;
18411;SDS011;27097;51.738;19.472;2022-10-16T02:28:16;9.50;;;6.35;;
18411;SDS011;27097;51.738;19.472;2022-10-16T02:30:49;12.73;;;6.55;;
18411;SDS011;27097;51.738;19.472;2022-10-16T02:33:18;10.98;;;6.15;;
18411;SDS011;27097;51.738;19.472;2022-10-16T02:35:48;10.40;;;6.47;;
18411;SDS011;27097;51.738;19.472;2022-10-16T02:38:17;11.90;;;6.38;;
18411;SDS011;27097;51.738;19.472;2022-10-16T02:40:45;11.43;;;6.85;;
18411;SDS011;27097;51.738;19.472;2022-10-16T02:43:12;10.18;;;6.15;;
18411;SDS011;27097;51.738;19.472;2022-10-16T02:45:39;10.05;;;6.32;;
18411;SDS011;27097;51.738;19.472;2022-10-16T02:48:08;10.05;;;6.68;;
18411;SDS011;27097;51.738;19.472;2022-10-16T02:50:35;10.07;;;6.13;;
18411;SDS011;27097;51.738;19.472;2022-10-16T02:53:02;9.40;;;6.60;;
18411;SDS011;27097;51.738;19.472;2022-10-16T02:55:29;10.43;;;6.35;;
18411;SDS011;27097;51.738;19.472;2022-10-16T02:57:56;9.20;;;6.10;;
18411;SDS011;27097;51.738;19.472;2022-10-16T03:00:23;8.40;;;6.38;;
18411;SDS011;27097;51.738;19.472;2022-10-16T03:02:50;8.55;;;5.90;;
18411;SDS011;27097;51.738;19.472;2022-10-16T03:05:18;9.80;;;6.18;;
18411;SDS011;27097;51.738;19.472;2022-10-16T03:07:45;9.18;;;6.57;;
18411;SDS011;27097;51.738;19.472;2022-10-16T03:10:12;8.25;;;6.22;;
18411;SDS011;27097;51.738;19.472;2022-10-16T03:12:39;10.63;;;6.60;;
18411;SDS011;27097;51.738;19.472;2022-10-16T03:15:06;9.80;;;6.70;;
18411;SDS011;27097;51.738;19.472;2022-10-16T03:17:33;8.70;;;6.30;;
18411;SDS011;27097;51.738;19.472;2022-10-16T03:20:00;10.10;;;6.45;;
18411;SDS011;27097;51.738;19.472;2022-10-16T03:22:29;9.90;;;6.47;;
18411;SDS011;27097;51.738;19.472;2022-10-16T03:24:56;10.00;;;6.00;;
18411;SDS011;27097;51.738;19.472;2022-10-16T03:27:23;10.32;;;6.38;;
18411;SDS011;27097;51.738;19.472;2022-10-16T03:29:50;9.13;;;6.18;;
18411;SDS011;27097;51.738;19.472;2022-10-16T03:32:17;11.27;;;5.85;;
18411;SDS011;27097;51.738;19.472;2022-10-16T03:34:45;8.68;;;6.20;;
18411;SDS011;27097;51.738;19.472;2022-10-16T03:37:12;14.43;;;6.50;;
18411;SDS011;27097;51.738;19.472;2022-10-16T03:39:40;8.77;;;5.63;;
18411;SDS011;27097;51.738;19.472;2022-10-16T03:42:07;8.82;;;5.75;;
18411;SDS011;27097;51.738;19.472;2022-10-16T03:44:34;7.72;;;5.90;;
18411;SDS011;27097;51.738;19.472;2022-10-16T03:47:01;11.02;;;6.00;;
18411;SDS011;27097;51.738;19.472;2022-10-16T03:49:29;9.00;;;5.90;;
18411;SDS011;27097;51.738;19.472;2022-10-16T03:51:56;7.72;;;5.88;;
18411;SDS011;27097;51.738;19.472;2022-10-16T03:54:23;8.57;;;6.00;;
18411;SDS011;27097;51.738;19.472;2022-10-16T03:56:51;9.93;;;5.97;;
18411;SDS011;27097;51.738;19.472;2022-10-16T03:59:18;10.50;;;5.95;;
18411;SDS011;27097;51.738;19.472;2022-10-16T04:01:45;8.63;;;5.72;;
18411;SDS011;27097;51.738;19.472;2022-10-16T04:04:12;8.73;;;6.00;;
18411;SDS011;27097;51.738;19.472;2022-10-16T04:06:39;8.30;;;6.18;;
18411;SDS011;27097;51.738;19.472;2022-10-16T04:09:06;8.40;;;5.78;;
18411;SDS011;27097;51.738;19.472;2022-10-16T04:11:33;9.32;;;6.10;;
18411;SDS011;27097;51.738;19.472;2022-10-16T04:14:01;13.00;;;6.00;;
18411;SDS011;27097;51.738;19.472;2022-10-16T04:16:28;9.18;;;5.75;;
18411;SDS011;27097;51.738;19.472;2022-10-16T04:18:55;7.60;;;5.68;;
18411;SDS011;27097;51.738;19.472;2022-10-16T04:21:22;8.23;;;5.80;;
18411;SDS011;27097;51.738;19.472;2022-10-16T04:23:48;8.55;;;5.93;;
18411;SDS011;27097;51.738;19.472;2022-10-16T04:26:15;9.73;;;5.65;;
18411;SDS011;27097;51.738;19.472;2022-10-16T04:28:42;7.97;;;6.05;;
18411;SDS011;27097;51.738;19.472;2022-10-16T04:31:10;8.95;;;5.90;;
18411;SDS011;27097;51.738;19.472;2022-10-16T04:33:37;8.38;;;5.90;;
18411;SDS011;27097;51.738;19.472;2022-10-16T04:36:08;7.25;;;5.82;;
18411;SDS011;27097;51.738;19.472;2022-10-16T04:38:35;9.13;;;6.10;;
18411;SDS011;27097;51.738;19.472;2022-10-16T04:41:02;7.82;;;5.43;;
18411;SDS011;27097;51.738;19.472;2022-10-16T04:43:29;8.23;;;5.75;;
18411;SDS011;27097;51.738;19.472;2022-10-16T04:45:56;7.47;;;5.68;;
18411;SDS011;27097;51.738;19.472;2022-10-16T04:48:24;7.15;;;5.95;;
18411;SDS011;27097;51.738;19.472;2022-10-16T04:50:51;8.18;;;5.70;;
18411;SDS011;27097;51.738;19.472;2022-10-16T04:53:18;8.07;;;5.45;;
18411;SDS011;27097;51.738;19.472;2022-10-16T04:55:45;9.20;;;5.47;;
18411;SDS011;27097;51.738;19.472;2022-10-16T04:58:12;6.68;;;5.20;;
18411;SDS011;27097;51.738;19.472;2022-10-16T05:00:39;7.97;;;5.60;;
18411;SDS011;27097;51.738;19.472;2022-10-16T05:03:06;8.75;;;6.00;;
18411;SDS011;27097;51.738;19.472;2022-10-16T05:05:35;10.23;;;6.00;;
18411;SDS011;27097;51.738;19.472;2022-10-16T05:08:02;8.93;;;5.60;;
18411;SDS011;27097;51.738;19.472;2022-10-16T05:10:29;12.35;;;5.88;;
18411;SDS011;27097;51.738;19.472;2022-10-16T05:12:56;7.93;;;5.80;;
18411;SDS011;27097;51.738;19.472;2022-10-16T05:15:23;7.70;;;5.80;;
18411;SDS011;27097;51.738;19.472;2022-10-16T05:17:52;8.07;;;5.28;;
18411;SDS011;27097;51.738;19.472;2022-10-16T05:20:19;8.45;;;5.70;;
18411;SDS011;27097;51.738;19.472;2022-10-16T05:22:48;10.35;;;5.47;;
18411;SDS011;27097;51.738;19.472;2022-10-16T05:25:15;8.07;;;5.85;;
18411;SDS011;27097;51.738;19.472;2022-10-16T05:27:42;7.15;;;5.68;;
18411;SDS011;27097;51.738;19.472;2022-10-16T05:30:09;8.70;;;5.20;;
18411;SDS011;27097;51.738;19.472;2022-10-16T05:32:36;9.70;;;5.57;;
18411;SDS011;27097;51.738;19.472;2022-10-16T05:35:03;9.68;;;5.90;;
18411;SDS011;27097;51.738;19.472;2022-10-16T05:37:31;8.20;;;5.70;;
18411;SDS011;27097;51.738;19.472;2022-10-16T05:40:00;9.73;;;5.63;;
18411;SDS011;27097;51.738;19.472;2022-10-16T05:42:29;12.15;;;5.68;;
18411;SDS011;27097;51.738;19.472;2022-10-16T05:44:56;10.68;;;5.20;;
18411;SDS011;27097;51.738;19.472;2022-10-16T05:47:23;12.32;;;5.60;;
18411;SDS011;27097;51.738;19.472;2022-10-16T05:49:50;9.18;;;5.07;;
18411;SDS011;27097;51.738;19.472;2022-10-16T05:52:17;9.07;;;5.35;;
18411;SDS011;27097;51.738;19.472;2022-10-16T05:54:44;15.73;;;5.35;;
18411;SDS011;27097;51.738;19.472;2022-10-16T05:57:12;11.35;;;5.30;;
18411;SDS011;27097;51.738;19.472;2022-10-16T05:59:39;12.00;;;6.47;;
18411;SDS011;27097;51.738;19.472;2022-10-16T06:02:07;18.45;;;6.75;;
18411;SDS011;27097;51.738;19.472;2022-10-16T06:04:37;11.82;;;6.28;;
18411;SDS011;27097;51.738;19.472;2022-10-16T06:07:04;13.18;;;6.30;;
18411;SDS011;27097;51.738;19.472;2022-10-16T06:09:31;11.10;;;6.75;;
18411;SDS011;27097;51.738;19.472;2022-10-16T06:11:58;10.70;;;6.45;;
18411;SDS011;27097;51.738;19.472;2022-10-16T06:14:27;18.48;;;6.72;;
18411;SDS011;27097;51.738;19.472;2022-10-16T06:16:53;10.98;;;6.45;;
18411;SDS011;27097;51.738;19.472;2022-10-16T06:19:20;29.52;;;7.00;;
18411;SDS011;27097;51.738;19.472;2022-10-16T06:21:47;14.27;;;6.28;;
18411;SDS011;27097;51.738;19.472;2022-10-16T06:24:14;9.90;;;5.97;;
18411;SDS011;27097;51.738;19.472;2022-10-16T06:26:41;10.30;;;6.18;;
18411;SDS011;27097;51.738;19.472;2022-10-16T06:29:08;10.35;;;6.30;;
18411;SDS011;27097;51.738;19.472;2022-10-16T06:31:36;9.07;;;5.80;;
18411;SDS011;27097;51.738;19.472;2022-10-16T06:34:03;8.43;;;5.63;;
18411;SDS011;27097;51.738;19.472;2022-10-16T06:36:34;10.80;;;5.78;;
18411;SDS011;27097;51.738;19.472;2022-10-16T06:39:01;13.77;;;6.35;;
18411;SDS011;27097;51.738;19.472;2022-10-16T06:41:28;10.82;;;6.15;;
18411;SDS011;27097;51.738;19.472;2022-10-16T06:43:55;13.75;;;6.43;;
18411;SDS011;27097;51.738;19.472;2022-10-16T06:46:23;14.10;;;5.82;;
18411;SDS011;27097;51.738;19.472;2022-10-16T06:48:52;12.43;;;6.85;;
18411;SDS011;27097;51.738;19.472;2022-10-16T06:51:19;16.63;;;6.50;;
18411;SDS011;27097;51.738;19.472;2022-10-16T06:53:48;12.60;;;6.95;;
18411;SDS011;27097;51.738;19.472;2022-10-16T06:56:18;15.43;;;7.18;;
18411;SDS011;27097;51.738;19.472;2022-10-16T06:58:47;12.68;;;7.28;;
18411;SDS011;27097;51.738;19.472;2022-10-16T07:01:15;29.88;;;11.27;;
18411;SDS011;27097;51.738;19.472;2022-10-16T07:03:43;26.15;;;11.50;;
18411;SDS011;27097;51.738;19.472;2022-10-16T07:06:14;21.90;;;9.45;;
18411;SDS011;27097;51.738;19.472;2022-10-16T07:08:43;20.13;;;9.90;;
18411;SDS011;27097;51.738;19.472;2022-10-16T07:11:12;18.90;;;9.23;;
18411;SDS011;27097;51.738;19.472;2022-10-16T07:13:41;18.08;;;8.45;;
18411;SDS011;27097;51.738;19.472;2022-10-16T07:16:10;14.93;;;8.65;;
18411;SDS011;27097;51.738;19.472;2022-10-16T07:18:38;18.30;;;8.18;;
18411;SDS011;27097;51.738;19.472;2022-10-16T07:21:08;16.55;;;8.68;;
18411;SDS011;27097;51.738;19.472;2022-10-16T07:23:37;14.60;;;8.70;;
18411;SDS011;27097;51.738;19.472;2022-10-16T07:26:04;14.73;;;8.00;;
18411;SDS011;27097;51.738;19.472;2022-10-16T07:28:32;19.83;;;8.63;;
18411;SDS011;27097;51.738;19.472;2022-10-16T07:31:00;15.75;;;8.38;;
18411;SDS011;27097;51.738;19.472;2022-10-16T07:33:28;15.45;;;8.05;;
18411;SDS011;27097;51.738;19.472;2022-10-16T07:35:55;18.75;;;8.95;;
18411;SDS011;27097;51.738;19.472;2022-10-16T07:38:22;17.63;;;8.35;;
18411;SDS011;27097;51.738;19.472;2022-10-16T07:40:56;14.68;;;8.68;;
18411;SDS011;27097;51.738;19.472;2022-10-16T07:43:24;16.77;;;8.55;;
18411;SDS011;27097;51.738;19.472;2022-10-16T07:45:51;14.60;;;8.30;;
18411;SDS011;27097;51.738;19.472;2022-10-16T07:48:19;17.75;;;8.57;;
18411;SDS011;27097;51.738;19.472;2022-10-16T07:50:46;18.85;;;8.90;;
18411;SDS011;27097;51.738;19.472;2022-10-16T07:53:13;19.65;;;8.98;;
18411;SDS011;27097;51.738;19.472;2022-10-16T07:55:43;15.70;;;8.57;;
18411;SDS011;27097;51.738;19.472;2022-10-16T07:58:12;15.80;;;8.98;;
18411;SDS011;27097;51.738;19.472;2022-10-16T08:00:39;18.20;;;8.85;;
18411;SDS011;27097;51.738;19.472;2022-10-16T08:03:05;15.32;;;9.07;;
18411;SDS011;27097;51.738;19.472;2022-10-16T08:05:32;13.88;;;8.98;;
18411;SDS011;27097;51.738;19.472;2022-10-16T08:08:00;14.88;;;8.35;;
18411;SDS011;27097;51.738;19.472;2022-10-16T08:10:27;23.02;;;8.75;;
18411;SDS011;27097;51.738;19.472;2022-10-16T08:12:56;17.90;;;9.27;;
18411;SDS011;27097;51.738;19.472;2022-10-16T08:15:25;18.83;;;8.48;;
18411;SDS011;27097;51.738;19.472;2022-10-16T08:17:56;19.77;;;8.07;;
18411;SDS011;27097;51.738;19.472;2022-10-16T08:20:23;19.35;;;8.60;;
18411;SDS011;27097;51.738;19.472;2022-10-16T08:22:51;18.80;;;8.93;;
18411;SDS011;27097;51.738;19.472;2022-10-16T08:25:19;16.65;;;8.70;;
18411;SDS011;27097;51.738;19.472;2022-10-16T08:27:45;15.60;;;8.77;;
18411;SDS011;27097;51.738;19.472;2022-10-16T08:30:13;13.43;;;8.50;;
18411;SDS011;27097;51.738;19.472;2022-10-16T08:32:41;19.85;;;8.90;;
18411;SDS011;27097;51.738;19.472;2022-10-16T08:35:08;15.88;;;8.38;;
18411;SDS011;27097;51.738;19.472;2022-10-16T08:37:35;13.77;;;8.40;;
18411;SDS011;27097;51.738;19.472;2022-10-16T08:40:03;13.65;;;8.38;;
18411;SDS011;27097;51.738;19.472;2022-10-16T08:42:36;17.75;;;8.43;;
18411;SDS011;27097;51.738;19.472;2022-10-16T08:48:14;17.98;;;8.27;;
18411;SDS011;27097;51.738;19.472;2022-10-16T08:50:46;16.70;;;8.23;;
18411;SDS011;27097;51.738;19.472;2022-10-16T08:53:16;21.55;;;8.23;;
18411;SDS011;27097;51.738;19.472;2022-10-16T08:55:49;13.93;;;8.60;;
18411;SDS011;27097;51.738;19.472;2022-10-16T08:58:17;18.30;;;8.15;;
18411;SDS011;27097;51.738;19.472;2022-10-16T09:00:46;19.05;;;8.82;;
18411;SDS011;27097;51.738;19.472;2022-10-16T09:03:23;15.68;;;8.73;;
18411;SDS011;27097;51.738;19.472;2022-10-16T09:06:10;17.83;;;8.52;;
18411;SDS011;27097;51.738;19.472;2022-10-16T09:08:54;17.20;;;8.52;;
18411;SDS011;27097;51.738;19.472;2022-10-16T09:11:34;20.38;;;9.57;;
18411;SDS011;27097;51.738;19.472;2022-10-16T09:14:15;16.20;;;8.95;;
18411;SDS011;27097;51.738;19.472;2022-10-16T09:16:52;29.80;;;9.55;;
18411;SDS011;27097;51.738;19.472;2022-10-16T09:19:27;24.27;;;9.32;;
18411;SDS011;27097;51.738;19.472;2022-10-16T09:21:57;25.08;;;9.43;;
18411;SDS011;27097;51.738;19.472;2022-10-16T09:24:29;20.75;;;8.52;;
18411;SDS011;27097;51.738;19.472;2022-10-16T09:26:56;21.40;;;8.50;;
18411;SDS011;27097;51.738;19.472;2022-10-16T09:29:23;21.58;;;8.48;;
18411;SDS011;27097;51.738;19.472;2022-10-16T09:31:50;23.40;;;8.77;;
18411;SDS011;27097;51.738;19.472;2022-10-16T09:34:21;18.38;;;9.55;;
18411;SDS011;27097;51.738;19.472;2022-10-16T09:36:56;19.65;;;8.63;;
18411;SDS011;27097;51.738;19.472;2022-10-16T09:39:25;17.35;;;8.80;;
18411;SDS011;27097;51.738;19.472;2022-10-16T09:41:51;25.02;;;8.88;;
18411;SDS011;27097;51.738;19.472;2022-10-16T09:44:19;24.95;;;8.93;;
18411;SDS011;27097;51.738;19.472;2022-10-16T09:47:00;18.55;;;8.95;;
18411;SDS011;27097;51.738;19.472;2022-10-16T09:49:29;19.83;;;8.35;;
18411;SDS011;27097;51.738;19.472;2022-10-16T09:52:03;16.98;;;8.77;;
18411;SDS011;27097;51.738;19.472;2022-10-16T09:54:30;14.13;;;8.10;;
18411;SDS011;27097;51.738;19.472;2022-10-16T09:57:04;15.75;;;8.35;;
18411;SDS011;27097;51.738;19.472;2022-10-16T09:59:32;18.05;;;8.48;;
18411;SDS011;27097;51.738;19.472;2022-10-16T10:02:01;17.85;;;8.68;;
18411;SDS011;27097;51.738;19.472;2022-10-16T10:04:39;13.85;;;8.57;;
18411;SDS011;27097;51.738;19.472;2022-10-16T10:07:15;18.35;;;8.45;;
18411;SDS011;27097;51.738;19.472;2022-10-16T10:09:45;15.27;;;8.07;;
18411;SDS011;27097;51.738;19.472;2022-10-16T10:12:19;16.73;;;7.85;;
18411;SDS011;27097;51.738;19.472;2022-10-16T10:14:48;15.85;;;7.32;;
18411;SDS011;27097;51.738;19.472;2022-10-16T10:17:19;12.52;;;7.47;;
18411;SDS011;27097;51.738;19.472;2022-10-16T10:19:50;16.50;;;8.13;;
18411;SDS011;27097;51.738;19.472;2022-10-16T10:22:20;15.35;;;7.85;;
18411;SDS011;27097;51.738;19.472;2022-10-16T10:30:38;11.10;;;7.50;;
18411;SDS011;27097;51.738;19.472;2022-10-16T10:33:16;17.17;;;7.65;;
18411;SDS011;27097;51.738;19.472;2022-10-16T10:35:56;14.30;;;7.70;;
18411;SDS011;27097;51.738;19.472;2022-10-16T10:38:34;12.48;;;7.35;;
18411;SDS011;27097;51.738;19.472;2022-10-16T10:41:15;11.82;;;7.07;;
18411;SDS011;27097;51.738;19.472;2022-10-16T10:43:56;12.95;;;6.97;;
18411;SDS011;27097;51.738;19.472;2022-10-16T10:46:32;10.82;;;7.25;;
18411;SDS011;27097;51.738;19.472;2022-10-16T10:49:06;15.23;;;7.45;;
18411;SDS011;27097;51.738;19.472;2022-10-16T10:51:44;10.35;;;6.70;;
18411;SDS011;27097;51.738;19.472;2022-10-16T10:54:25;17.20;;;7.25;;
18411;SDS011;27097;51.738;19.472;2022-10-16T10:56:59;13.73;;;7.22;;
18411;SDS011;27097;51.738;19.472;2022-10-16T10:59:52;12.63;;;7.07;;
18411;SDS011;27097;51.738;19.472;2022-10-16T11:02:32;10.82;;;6.95;;
18411;SDS011;27097;51.738;19.472;2022-10-16T11:05:14;12.10;;;6.72;;
18411;SDS011;27097;51.738;19.472;2022-10-16T11:07:57;12.73;;;7.13;;
18411;SDS011;27097;51.738;19.472;2022-10-16T11:10:27;9.02;;;6.53;;
18411;SDS011;27097;51.738;19.472;2022-10-16T11:12:58;12.88;;;6.72;;
18411;SDS011;27097;51.738;19.472;2022-10-16T11:15:34;9.35;;;6.65;;
18411;SDS011;27097;51.738;19.472;2022-10-16T11:18:05;10.60;;;7.05;;
18411;SDS011;27097;51.738;19.472;2022-10-16T11:20:37;10.55;;;7.15;;
18411;SDS011;27097;51.738;19.472;2022-10-16T11:23:13;13.73;;;6.63;;
18411;SDS011;27097;51.738;19.472;2022-10-16T11:25:44;10.05;;;6.57;;
18411;SDS011;27097;51.738;19.472;2022-10-16T11:28:16;8.90;;;6.75;;
18411;SDS011;27097;51.738;19.472;2022-10-16T11:30:47;12.15;;;6.90;;
18411;SDS011;27097;51.738;19.472;2022-10-16T11:33:23;10.93;;;6.90;;
18411;SDS011;27097;51.738;19.472;2022-10-16T11:36:00;9.65;;;6.95;;
18411;SDS011;27097;51.738;19.472;2022-10-16T11:38:32;9.73;;;6.38;;
18411;SDS011;27097;51.738;19.472;2022-10-16T11:41:08;10.88;;;6.57;;
18411;SDS011;27097;51.738;19.472;2022-10-16T11:43:43;9.25;;;6.35;;
18411;SDS011;27097;51.738;19.472;2022-10-16T11:46:16;9.48;;;6.45;;
18411;SDS011;27097;51.738;19.472;2022-10-16T11:48:48;10.50;;;6.85;;
18411;SDS011;27097;51.738;19.472;2022-10-16T11:51:19;8.90;;;6.47;;
18411;SDS011;27097;51.738;19.472;2022-10-16T11:53:55;9.65;;;6.43;;
18411;SDS011;27097;51.738;19.472;2022-10-16T11:56:25;10.18;;;6.45;;
18411;SDS011;27097;51.738;19.472;2022-10-16T11:58:55;10.05;;;6.30;;
18411;SDS011;27097;51.738;19.472;2022-10-16T12:01:27;9.07;;;6.45;;
18411;SDS011;27097;51.738;19.472;2022-10-16T12:04:06;9.10;;;6.03;;
18411;SDS011;27097;51.738;19.472;2022-10-16T12:06:43;11.20;;;6.18;;
18411;SDS011;27097;51.738;19.472;2022-10-16T12:09:18;7.88;;;5.72;;
18411;SDS011;27097;51.738;19.472;2022-10-16T12:11:49;11.90;;;6.10;;
18411;SDS011;27097;51.738;19.472;2022-10-16T12:14:20;9.85;;;6.30;;
18411;SDS011;27097;51.738;19.472;2022-10-16T12:17:00;8.45;;;6.30;;
18411;SDS011;27097;51.738;19.472;2022-10-16T12:19:30;9.32;;;6.57;;
18411;SDS011;27097;51.738;19.472;2022-10-16T12:21:58;9.85;;;6.18;;
18411;SDS011;27097;51.738;19.472;2022-10-16T12:24:35;9.75;;;6.28;;
18411;SDS011;27097;51.738;19.472;2022-10-16T12:27:04;8.60;;;6.53;;
18411;SDS011;27097;51.738;19.472;2022-10-16T12:29:46;11.85;;;6.90;;
18411;SDS011;27097;51.738;19.472;2022-10-16T12:32:21;8.95;;;5.68;;
18411;SDS011;27097;51.738;19.472;2022-10-16T12:34:52;8.52;;;6.03;;
18411;SDS011;27097;51.738;19.472;2022-10-16T12:37:20;9.65;;;6.18;;
18411;SDS011;27097;51.738;19.472;2022-10-16T12:39:51;8.88;;;5.85;;
18411;SDS011;27097;51.738;19.472;2022-10-16T12:42:20;9.63;;;6.65;;
18411;SDS011;27097;51.738;19.472;2022-10-16T12:44:59;8.43;;;5.93;;
18411;SDS011;27097;51.738;19.472;2022-10-16T12:47:38;10.10;;;6.13;;
18411;SDS011;27097;51.738;19.472;2022-10-16T12:50:28;9.20;;;5.95;;
18411;SDS011;27097;51.738;19.472;2022-10-16T12:52:57;8.80;;;6.28;;
18411;SDS011;27097;51.738;19.472;2022-10-16T12:55:26;8.20;;;5.97;;
18411;SDS011;27097;51.738;19.472;2022-10-16T13:01:03;9.65;;;6.05;;
18411;SDS011;27097;51.738;19.472;2022-10-16T13:06:41;8.30;;;6.03;;
18411;SDS011;27097;51.738;19.472;2022-10-16T13:09:19;8.68;;;6.18;;
18411;SDS011;27097;51.738;19.472;2022-10-16T13:12:15;9.15;;;5.88;;
18411;SDS011;27097;51.738;19.472;2022-10-16T13:15:01;7.70;;;6.00;;
18411;SDS011;27097;51.738;19.472;2022-10-16T13:17:40;7.93;;;6.18;;
18411;SDS011;27097;51.738;19.472;2022-10-16T13:20:17;9.93;;;6.00;;
18411;SDS011;27097;51.738;19.472;2022-10-16T13:22:51;8.13;;;5.80;;
18411;SDS011;27097;51.738;19.472;2022-10-16T13:25:26;6.97;;;5.88;;
18411;SDS011;27097;51.738;19.472;2022-10-16T13:28:02;7.63;;;5.82;;
18411;SDS011;27097;51.738;19.472;2022-10-16T13:30:32;7.65;;;5.60;;
18411;SDS011;27097;51.738;19.472;2022-10-16T13:33:03;8.27;;;6.05;;
18411;SDS011;27097;51.738;19.472;2022-10-16T13:35:34;7.78;;;5.53;;
18411;SDS011;27097;51.738;19.472;2022-10-16T13:38:05;7.97;;;6.20;;
18411;SDS011;27097;51.738;19.472;2022-10-16T13:40:47;11.20;;;5.88;;
18411;SDS011;27097;51.738;19.472;2022-10-16T13:43:18;8.15;;;5.50;;
18411;SDS011;27097;51.738;19.472;2022-10-16T13:45:53;8.23;;;6.10;;
18411;SDS011;27097;51.738;19.472;2022-10-16T13:48:24;8.05;;;6.00;;
18411;SDS011;27097;51.738;19.472;2022-10-16T13:50:58;7.28;;;5.80;;
18411;SDS011;27097;51.738;19.472;2022-10-16T13:53:25;7.03;;;5.53;;
18411;SDS011;27097;51.738;19.472;2022-10-16T13:55:52;8.10;;;5.40;;
18411;SDS011;27097;51.738;19.472;2022-10-16T13:58:20;8.45;;;6.00;;
18411;SDS011;27097;51.738;19.472;2022-10-16T14:00:54;6.95;;;5.55;;
18411;SDS011;27097;51.738;19.472;2022-10-16T14:03:23;8.77;;;5.93;;
18411;SDS011;27097;51.738;19.472;2022-10-16T14:05:51;8.82;;;5.30;;
18411;SDS011;27097;51.738;19.472;2022-10-16T14:08:20;7.82;;;5.50;;
18411;SDS011;27097;51.738;19.472;2022-10-16T14:10:48;7.97;;;5.70;;
18411;SDS011;27097;51.738;19.472;2022-10-16T14:13:17;9.77;;;5.78;;
18411;SDS011;27097;51.738;19.472;2022-10-16T14:15:47;7.03;;;5.82;;
18411;SDS011;27097;51.738;19.472;2022-10-16T14:18:18;7.18;;;5.20;;
18411;SDS011;27097;51.738;19.472;2022-10-16T14:20:46;7.35;;;5.43;;
18411;SDS011;27097;51.738;19.472;2022-10-16T14:23:19;6.80;;;5.53;;
18411;SDS011;27097;51.738;19.472;2022-10-16T14:25:48;7.15;;;5.75;;
18411;SDS011;27097;51.738;19.472;2022-10-16T14:28:15;6.82;;;5.50;;
18411;SDS011;27097;51.738;19.472;2022-10-16T14:30:52;7.35;;;5.55;;
18411;SDS011;27097;51.738;19.472;2022-10-16T14:33:21;6.80;;;5.45;;
18411;SDS011;27097;51.738;19.472;2022-10-16T14:36:00;6.53;;;5.25;;
18411;SDS011;27097;51.738;19.472;2022-10-16T14:38:30;7.50;;;5.10;;
18411;SDS011;27097;51.738;19.472;2022-10-16T14:40:59;8.13;;;5.68;;
18411;SDS011;27097;51.738;19.472;2022-10-16T14:43:29;7.38;;;5.60;;
18411;SDS011;27097;51.738;19.472;2022-10-16T14:46:01;6.80;;;5.03;;
18411;SDS011;27097;51.738;19.472;2022-10-16T14:48:30;6.95;;;5.50;;
18411;SDS011;27097;51.738;19.472;2022-10-16T14:50:57;6.75;;;5.40;;
18411;SDS011;27097;51.738;19.472;2022-10-16T14:53:24;7.25;;;5.47;;
18411;SDS011;27097;51.738;19.472;2022-10-16T14:55:51;6.90;;;5.50;;
18411;SDS011;27097;51.738;19.472;2022-10-16T14:58:19;7.13;;;5.30;;